createdAt,value
2022-09-23T00:01:13.955Z,7.68
2022-09-23T00:03:42.646Z,6.40
2022-09-23T00:06:12.381Z,6.30
2022-09-23T00:08:40.197Z,6.10
2022-09-23T00:11:15.369Z,8.38
2022-09-23T00:13:43.942Z,6.13
2022-09-23T00:16:14.720Z,6.25
2022-09-23T00:18:42.402Z,6.72
2022-09-23T00:21:12.175Z,6.28
2022-09-23T00:23:40.560Z,7.93
2022-09-23T00:26:09.194Z,6.95
2022-09-23T00:28:36.003Z,6.57
2022-09-23T00:31:11.201Z,8.43
2022-09-23T00:33:38.538Z,5.82
2022-09-23T00:36:07.514Z,5.50
2022-09-23T00:38:34.561Z,5.13
2022-09-23T00:41:01.476Z,7.57
2022-09-23T00:43:58.713Z,6.05
2022-09-23T00:46:31.107Z,6.40
2022-09-23T00:49:07.035Z,6.20
2022-09-23T00:51:38.585Z,6.22
2022-09-23T00:54:06.600Z,6.75
2022-09-23T00:56:34.647Z,7.25
2022-09-23T00:59:02.463Z,6.35
2022-09-23T01:01:29.836Z,7.55
2022-09-23T01:03:57.593Z,6.95
2022-09-23T01:06:24.482Z,6.72
2022-09-23T01:08:52.023Z,6.53
2022-09-23T01:11:18.876Z,5.38
2022-09-23T01:17:28.807Z,6.70
2022-09-23T01:19:57.070Z,6.03
2022-09-23T01:22:43.321Z,7.22
2022-09-23T01:25:35.634Z,6.18
2022-09-23T01:28:35.026Z,7.07
2022-09-23T01:31:37.114Z,6.97
2022-09-23T01:34:25.087Z,6.13
2022-09-23T01:36:57.999Z,6.53
2022-09-23T01:40:04.139Z,6.70
2022-09-23T01:42:46.592Z,5.85
2022-09-23T01:45:25.286Z,5.72
2022-09-23T01:47:57.298Z,5.45
2022-09-23T01:50:49.235Z,8.00
2022-09-23T01:53:37.805Z,6.45
2022-09-23T01:56:17.004Z,5.03
2022-09-23T01:59:15.432Z,5.85
2022-09-23T02:01:50.860Z,5.55
2022-09-23T02:05:04.129Z,5.50
2022-09-23T02:07:38.971Z,5.90
2022-09-23T02:10:24.367Z,6.28
2022-09-23T02:12:57.577Z,6.13
2022-09-23T02:15:31.647Z,6.60
2022-09-23T02:18:08.492Z,6.50
2022-09-23T02:20:39.712Z,6.38
2022-09-23T02:23:13.009Z,5.85
2022-09-23T02:25:51.688Z,8.52
2022-09-23T02:28:30.933Z,6.47
2022-09-23T02:31:41.929Z,7.68
2022-09-23T02:34:27.047Z,6.30
2022-09-23T02:37:14.120Z,6.97
2022-09-23T02:39:55.542Z,7.20
2022-09-23T02:42:27.630Z,8.13
2022-09-23T02:44:54.821Z,8.35
2022-09-23T02:47:24.495Z,6.93
2022-09-23T02:49:51.939Z,7.68
2022-09-23T02:52:18.780Z,7.30
2022-09-23T02:54:45.496Z,7.25
2022-09-23T02:57:14.471Z,6.97
2022-09-23T02:59:41.535Z,9.38
2022-09-23T03:02:27.068Z,7.32
2022-09-23T03:05:12.746Z,6.35
2022-09-23T03:07:45.237Z,6.82
2022-09-23T03:10:53.840Z,6.13
2022-09-23T03:13:48.752Z,6.30
2022-09-23T03:16:44.252Z,6.13
2022-09-23T03:19:34.820Z,6.32
2022-09-23T03:22:25.043Z,6.53
2022-09-23T03:24:54.243Z,7.70
2022-09-23T03:27:25.610Z,7.22
2022-09-23T03:29:54.777Z,8.38
2022-09-23T03:32:28.032Z,6.80
2022-09-23T03:34:57.807Z,7.22
2022-09-23T03:37:35.895Z,9.00
2022-09-23T03:40:21.092Z,7.40
2022-09-23T03:42:50.526Z,8.13
2022-09-23T03:45:21.710Z,6.03
2022-09-23T03:47:48.444Z,5.80
2022-09-23T03:50:17.246Z,9.07
2022-09-23T03:52:44.537Z,7.38
2022-09-23T03:55:11.476Z,6.28
2022-09-23T03:57:38.562Z,8.15
2022-09-23T04:00:07.412Z,6.72
2022-09-23T04:02:40.223Z,6.88
2022-09-23T04:05:09.081Z,8.05
2022-09-23T04:07:35.833Z,6.70
2022-09-23T04:10:02.761Z,7.57
2022-09-23T04:12:29.464Z,8.00
2022-09-23T04:14:56.175Z,6.35
2022-09-23T04:17:22.898Z,11.07
2022-09-23T04:19:49.594Z,8.43
2022-09-23T04:22:16.283Z,7.45
2022-09-23T04:24:43.461Z,8.38
2022-09-23T04:27:10.206Z,7.22
2022-09-23T04:29:36.932Z,14.00
2022-09-23T04:32:03.778Z,7.43
2022-09-23T04:34:30.523Z,10.52
2022-09-23T04:36:57.216Z,9.18
2022-09-23T04:39:23.915Z,8.48
2022-09-23T04:41:50.667Z,11.65
2022-09-23T04:44:17.370Z,13.90
2022-09-23T04:46:47.873Z,13.00
2022-09-23T04:49:15.998Z,9.00
2022-09-23T04:51:43.591Z,9.65
2022-09-23T04:54:13.696Z,8.20
2022-09-23T04:56:40.833Z,8.02
2022-09-23T04:59:07.936Z,7.53
2022-09-23T05:01:36.300Z,7.38
2022-09-23T05:04:06.137Z,6.32
2022-09-23T05:06:34.915Z,7.72
2022-09-23T05:09:04.387Z,7.32
2022-09-23T05:11:31.587Z,6.72
2022-09-23T05:13:58.848Z,7.90
2022-09-23T05:16:27.084Z,7.57
2022-09-23T05:18:54.499Z,8.90
2022-09-23T05:21:28.329Z,7.47
2022-09-23T05:23:58.876Z,8.30
2022-09-23T05:26:28.595Z,6.72
2022-09-23T05:28:56.343Z,9.80
2022-09-23T05:31:25.966Z,8.13
2022-09-23T05:33:56.825Z,7.55
2022-09-23T05:36:24.790Z,7.85
2022-09-23T05:38:52.548Z,7.43
2022-09-23T05:41:22.814Z,10.98
2022-09-23T05:43:53.648Z,8.45
2022-09-23T05:46:28.952Z,8.55
2022-09-23T05:49:01.747Z,7.90
2022-09-23T05:51:31.088Z,9.45
2022-09-23T05:53:59.568Z,11.60
2022-09-23T05:56:28.436Z,8.05
2022-09-23T05:58:56.924Z,7.82
2022-09-23T06:01:26.053Z,10.68
2022-09-23T06:03:54.297Z,12.48
2022-09-23T06:06:28.389Z,7.20
2022-09-23T06:08:55.160Z,10.82
2022-09-23T06:11:22.112Z,8.60
2022-09-23T06:13:49.291Z,8.68
2022-09-23T06:16:16.458Z,7.80
2022-09-23T06:18:45.539Z,10.48
2022-09-23T06:21:14.700Z,9.85
2022-09-23T06:23:42.214Z,10.98
2022-09-23T06:26:12.075Z,9.32
2022-09-23T06:28:40.477Z,8.60
2022-09-23T06:31:13.977Z,10.35
2022-09-23T06:33:42.770Z,9.45
2022-09-23T06:36:10.375Z,10.45
2022-09-23T06:38:44.053Z,10.23
2022-09-23T06:41:11.914Z,10.30
2022-09-23T06:43:38.904Z,9.95
2022-09-23T06:46:07.548Z,10.75
2022-09-23T06:48:41.716Z,12.65
2022-09-23T06:51:18.952Z,9.50
2022-09-23T06:53:47.118Z,12.25
2022-09-23T06:56:14.800Z,9.85
2022-09-23T06:58:41.698Z,17.88
2022-09-23T07:01:11.005Z,10.43
2022-09-23T07:03:38.782Z,11.90
2022-09-23T07:06:07.185Z,19.80
2022-09-23T07:08:34.967Z,23.75
2022-09-23T07:11:04.648Z,20.95
2022-09-23T07:13:33.347Z,15.80
2022-09-23T07:16:02.038Z,25.80
2022-09-23T07:18:36.614Z,15.00
2022-09-23T07:21:16.117Z,13.95
2022-09-23T07:23:47.693Z,10.07
2022-09-23T07:26:15.712Z,11.77
2022-09-23T07:28:42.745Z,10.20
2022-09-23T07:31:13.801Z,11.27
2022-09-23T07:33:44.091Z,8.52
2022-09-23T07:36:14.099Z,7.65
2022-09-23T07:38:45.286Z,9.40
2022-09-23T07:41:15.438Z,7.63
2022-09-23T07:43:42.275Z,8.00
2022-09-23T07:46:14.114Z,14.05
2022-09-23T07:48:40.922Z,19.63
2022-09-23T07:51:13.301Z,19.48
2022-09-23T07:53:40.091Z,10.63
2022-09-23T07:56:06.892Z,11.80
2022-09-23T07:58:39.439Z,12.65
2022-09-23T08:01:09.666Z,7.72
2022-09-23T08:03:37.469Z,6.40
2022-09-23T08:06:06.377Z,7.70
2022-09-23T08:08:33.111Z,6.07
2022-09-23T08:11:05.599Z,8.70
2022-09-23T08:13:33.301Z,9.73
2022-09-23T08:16:00.610Z,13.15
2022-09-23T08:18:27.645Z,7.68
2022-09-23T08:20:54.384Z,6.40
2022-09-23T08:23:21.401Z,6.80
2022-09-23T08:25:48.399Z,7.35
2022-09-23T08:28:18.371Z,7.60
2022-09-23T08:30:48.707Z,6.85
2022-09-23T08:33:20.989Z,6.43
2022-09-23T08:35:50.350Z,10.43
2022-09-23T08:38:17.094Z,8.95
2022-09-23T08:40:48.430Z,8.48
2022-09-23T08:43:27.328Z,8.52
2022-09-23T08:45:56.712Z,6.55
2022-09-23T08:48:30.518Z,10.63
2022-09-23T08:51:22.047Z,6.40
2022-09-23T08:53:48.854Z,6.93
2022-09-23T08:56:19.198Z,5.30
2022-09-23T08:58:56.354Z,6.68
2022-09-23T09:01:59.908Z,5.97
2022-09-23T09:04:35.586Z,6.35
2022-09-23T09:07:34.692Z,6.53
2022-09-23T09:10:00.403Z,6.70
2022-09-23T09:12:41.717Z,8.13
2022-09-23T09:15:14.592Z,6.07
2022-09-23T09:17:53.772Z,8.93
2022-09-23T09:20:27.816Z,8.13
2022-09-23T09:23:02.228Z,7.80
2022-09-23T09:25:48.394Z,7.47
2022-09-23T09:28:24.550Z,7.15
2022-09-23T09:30:56.393Z,5.72
2022-09-23T09:33:49.039Z,6.95
2022-09-23T09:36:37.905Z,5.45
2022-09-23T09:39:05.489Z,6.68
2022-09-23T09:41:32.585Z,6.30
2022-09-23T09:44:09.843Z,5.38
2022-09-23T09:46:48.369Z,8.02
2022-09-23T09:49:41.022Z,4.68
2022-09-23T09:52:13.731Z,5.43
2022-09-23T09:54:40.425Z,6.50
2022-09-23T09:57:25.213Z,6.13
2022-09-23T09:59:51.970Z,6.85
2022-09-23T10:02:23.647Z,7.60
2022-09-23T10:04:57.535Z,5.60
2022-09-23T10:07:27.287Z,7.38
2022-09-23T10:09:58.308Z,5.90
2022-09-23T10:12:47.257Z,9.32
2022-09-23T10:15:44.477Z,6.07
2022-09-23T10:18:28.002Z,7.80
2022-09-23T10:21:09.706Z,5.05
2022-09-23T10:23:42.332Z,5.63
2022-09-23T10:26:12.003Z,5.72
2022-09-23T10:28:44.529Z,5.65
2022-09-23T10:31:15.564Z,6.55
2022-09-23T10:33:50.444Z,6.88
2022-09-23T10:36:18.567Z,6.40
2022-09-23T10:39:20.554Z,7.32
2022-09-23T10:42:50.622Z,7.57
2022-09-23T10:45:47.422Z,5.75
2022-09-23T10:48:25.462Z,7.85
2022-09-23T10:50:54.062Z,6.22
2022-09-23T10:53:35.777Z,7.10
2022-09-23T10:56:24.537Z,6.28
2022-09-23T10:59:14.138Z,6.97
2022-09-23T11:01:58.213Z,5.60
2022-09-23T11:04:39.813Z,6.07
2022-09-23T11:07:40.872Z,5.32
2022-09-23T11:10:45.011Z,5.82
2022-09-23T11:13:54.083Z,6.18
2022-09-23T11:16:58.929Z,8.43
2022-09-23T11:19:41.092Z,5.68
2022-09-23T11:22:24.938Z,6.43
2022-09-23T11:25:25.740Z,7.38
2022-09-23T11:28:17.984Z,7.82
2022-09-23T11:31:00.739Z,6.70
2022-09-23T11:33:52.784Z,6.05
2022-09-23T11:36:37.683Z,5.60
2022-09-23T11:39:17.503Z,5.22
2022-09-23T11:41:46.149Z,5.60
2022-09-23T11:44:41.087Z,6.50
2022-09-23T11:47:24.495Z,6.40
2022-09-23T11:50:01.271Z,6.72
2022-09-23T11:52:36.584Z,5.72
2022-09-23T11:55:24.319Z,5.75
2022-09-23T11:57:55.148Z,6.85
2022-09-23T12:00:35.727Z,5.72
2022-09-23T12:03:29.342Z,5.20
2022-09-23T12:06:05.115Z,7.10
2022-09-23T12:08:39.091Z,6.63
2022-09-23T12:11:36.597Z,5.40
2022-09-23T12:14:09.604Z,5.80
2022-09-23T12:17:01.123Z,5.32
2022-09-23T12:19:51.664Z,6.13
2022-09-23T12:22:42.923Z,5.88
2022-09-23T12:25:26.567Z,5.97
2022-09-23T12:27:59.765Z,5.47
2022-09-23T12:30:30.577Z,5.38
2022-09-23T12:35:45.176Z,5.10
2022-09-23T12:38:31.489Z,6.07
2022-09-23T12:41:00.016Z,5.93
2022-09-23T12:43:33.308Z,5.55
2022-09-23T12:46:25.593Z,6.45
2022-09-23T12:48:58.899Z,5.75
2022-09-23T12:51:30.842Z,6.75
2022-09-23T12:54:14.194Z,5.60
2022-09-23T12:56:40.947Z,5.55
2022-09-23T12:59:18.075Z,5.70
2022-09-23T13:01:45.005Z,5.65
2022-09-23T13:04:48.449Z,6.20
2022-09-23T13:07:23.442Z,5.20
2022-09-23T13:09:52.546Z,7.38
2022-09-23T13:12:31.069Z,5.68
2022-09-23T13:15:03.484Z,5.20
2022-09-23T13:17:38.244Z,6.90
2022-09-23T13:20:38.258Z,8.60
2022-09-23T13:23:15.908Z,7.07
2022-09-23T13:25:43.838Z,6.30
2022-09-23T13:28:49.033Z,6.00
2022-09-23T13:31:19.334Z,5.75
2022-09-23T13:33:50.333Z,6.85
2022-09-23T13:36:19.112Z,7.30
2022-09-23T13:38:47.003Z,6.15
2022-09-23T13:41:28.618Z,5.72
2022-09-23T13:43:58.581Z,6.47
2022-09-23T13:46:34.998Z,6.50
2022-09-23T13:49:02.849Z,5.68
2022-09-23T13:51:33.885Z,5.53
2022-09-23T13:54:02.629Z,6.22
2022-09-23T13:56:33.373Z,6.05
2022-09-23T14:01:47.045Z,4.93
2022-09-23T14:04:25.318Z,5.55
2022-09-23T14:06:53.775Z,5.25
2022-09-23T14:09:27.422Z,6.07
2022-09-23T14:11:56.555Z,8.73
2022-09-23T14:14:24.131Z,5.90
2022-09-23T14:16:52.061Z,6.13
2022-09-23T14:19:23.859Z,6.68
2022-09-23T14:21:55.656Z,5.18
2022-09-23T14:24:34.001Z,5.80
2022-09-23T14:27:06.603Z,6.00
2022-09-23T14:29:41.965Z,6.32
2022-09-23T14:32:18.216Z,5.47
2022-09-23T14:34:48.397Z,6.10
2022-09-23T14:37:36.970Z,6.00
2022-09-23T14:40:09.389Z,8.43
2022-09-23T14:42:44.338Z,6.20
2022-09-23T14:45:20.612Z,7.13
2022-09-23T14:47:51.026Z,7.30
2022-09-23T14:51:02.361Z,5.95
2022-09-23T14:53:35.027Z,6.07
2022-09-23T14:56:22.109Z,5.85
2022-09-23T14:58:59.194Z,5.45
2022-09-23T15:01:32.985Z,6.63
2022-09-23T15:04:22.835Z,6.78
2022-09-23T15:06:55.828Z,6.57
2022-09-23T15:09:29.616Z,6.68
2022-09-23T15:11:59.945Z,7.68
2022-09-23T15:14:38.701Z,5.20
2022-09-23T15:17:32.473Z,5.88
2022-09-23T15:20:08.906Z,6.97
2022-09-23T15:22:50.303Z,6.50
2022-09-23T15:25:33.228Z,5.70
2022-09-23T15:28:17.279Z,6.45
2022-09-23T15:30:44.149Z,5.70
2022-09-23T15:33:13.622Z,6.30
2022-09-23T15:35:45.861Z,6.72
2022-09-23T15:38:12.903Z,8.30
2022-09-23T15:40:40.310Z,7.55
2022-09-23T15:43:27.643Z,7.32
2022-09-23T15:45:59.773Z,6.30
2022-09-23T15:48:31.682Z,5.75
2022-09-23T15:51:04.092Z,9.27
2022-09-23T15:53:31.440Z,5.38
2022-09-23T15:55:58.672Z,5.72
2022-09-23T15:58:26.300Z,6.18
2022-09-23T16:00:56.735Z,6.57
2022-09-23T16:03:30.653Z,5.78
2022-09-23T16:06:02.396Z,6.05
2022-09-23T16:08:32.195Z,6.25
2022-09-23T16:10:59.584Z,6.22
2022-09-23T16:13:26.317Z,6.88
2022-09-23T16:15:53.091Z,6.97
2022-09-23T16:18:20.176Z,8.35
2022-09-23T16:20:47.924Z,8.02
2022-09-23T16:23:35.410Z,8.38
2022-09-23T16:26:06.458Z,6.35
2022-09-23T16:28:33.628Z,7.55
2022-09-23T16:31:00.377Z,9.23
2022-09-23T16:33:27.671Z,18.80
2022-09-23T16:35:55.013Z,13.82
2022-09-23T16:38:21.712Z,11.02
2022-09-23T16:40:48.476Z,11.45
2022-09-23T16:43:15.369Z,7.75
2022-09-23T16:45:42.160Z,9.10
2022-09-23T16:48:11.328Z,8.32
2022-09-23T16:50:39.408Z,9.93
2022-09-23T16:53:06.239Z,7.95
2022-09-23T16:55:33.026Z,6.75
2022-09-23T16:57:59.756Z,7.20
2022-09-23T17:00:45.313Z,7.05
2022-09-23T17:03:31.590Z,6.45
2022-09-23T17:05:58.759Z,5.90
2022-09-23T17:08:25.585Z,6.90
2022-09-23T17:10:58.481Z,5.97
2022-09-23T17:13:26.986Z,6.18
2022-09-23T17:15:54.092Z,7.30
2022-09-23T17:18:21.559Z,9.50
2022-09-23T17:21:06.462Z,6.60
2022-09-23T17:23:35.507Z,20.05
2022-09-23T17:26:05.343Z,34.10
2022-09-23T17:28:32.452Z,30.77
2022-09-23T17:31:04.448Z,48.72
2022-09-23T17:33:32.715Z,51.70
2022-09-23T17:36:00.172Z,23.65
2022-09-23T17:38:29.433Z,13.80
2022-09-23T17:40:59.096Z,8.75
2022-09-23T17:43:26.052Z,7.50
2022-09-23T17:45:54.612Z,8.32
2022-09-23T17:48:22.684Z,8.10
2022-09-23T17:51:04.218Z,7.10
2022-09-23T17:53:33.055Z,8.98
2022-09-23T17:56:03.420Z,9.50
2022-09-23T17:58:33.644Z,10.57
2022-09-23T18:01:00.922Z,8.35
2022-09-23T18:03:30.019Z,7.43
2022-09-23T18:06:12.042Z,8.57
2022-09-23T18:08:39.610Z,8.05
2022-09-23T18:11:19.094Z,9.48
2022-09-23T18:13:51.183Z,11.10
2022-09-23T18:16:18.865Z,10.02
2022-09-23T18:19:00.157Z,8.20
2022-09-23T18:21:30.058Z,8.60
2022-09-23T18:24:28.272Z,10.63
2022-09-23T18:26:45.000Z,7.82
2022-09-23T18:29:11.692Z,21.67
2022-09-23T18:31:39.290Z,26.45
2022-09-23T18:34:10.382Z,20.95
2022-09-23T18:36:37.983Z,14.50
2022-09-23T18:39:05.368Z,9.13
2022-09-23T18:41:35.636Z,8.93
2022-09-23T18:44:04.211Z,9.07
2022-09-23T18:46:31.789Z,9.07
2022-09-23T18:49:17.964Z,11.43
2022-09-23T18:51:59.627Z,10.40
2022-09-23T18:54:30.449Z,30.42
2022-09-23T18:56:59.233Z,28.38
2022-09-23T18:59:29.799Z,14.95
2022-09-23T19:01:57.261Z,11.45
2022-09-23T19:04:29.739Z,8.95
2022-09-23T19:07:03.233Z,8.20
2022-09-23T19:09:29.949Z,8.32
2022-09-23T19:11:57.672Z,9.98
2022-09-23T19:14:24.505Z,8.30
2022-09-23T19:16:51.279Z,9.73
2022-09-23T19:19:18.157Z,7.10
2022-09-23T19:21:45.003Z,11.55
2022-09-23T19:24:15.603Z,8.25
2022-09-23T19:26:43.657Z,9.10
2022-09-23T19:29:15.635Z,42.58
2022-09-23T19:31:43.447Z,64.13
2022-09-23T19:34:19.302Z,35.72
2022-09-23T19:36:47.615Z,16.35
2022-09-23T19:39:19.834Z,12.82
2022-09-23T19:41:47.401Z,11.65
2022-09-23T19:44:15.257Z,12.88
2022-09-23T19:46:45.156Z,13.65
2022-09-23T19:49:12.294Z,11.02
2022-09-23T19:51:39.703Z,9.77
2022-09-23T19:54:07.706Z,11.40
2022-09-23T19:56:35.486Z,8.65
2022-09-23T19:59:04.464Z,9.70
2022-09-23T20:01:31.966Z,10.50
2022-09-23T20:03:59.531Z,10.75
2022-09-23T20:06:30.450Z,9.90
2022-09-23T20:09:00.861Z,11.00
2022-09-23T20:11:28.985Z,10.38
2022-09-23T20:14:02.183Z,9.88
2022-09-23T20:16:32.150Z,8.73
2022-09-23T20:19:00.263Z,9.85
2022-09-23T20:21:29.040Z,9.52
2022-09-23T20:23:56.768Z,9.48
2022-09-23T20:26:42.535Z,9.93
2022-09-23T20:29:10.635Z,13.68
2022-09-23T20:31:37.908Z,8.70
2022-09-23T20:34:07.002Z,9.63
2022-09-23T20:36:35.025Z,10.93
2022-09-23T20:39:05.661Z,9.30
2022-09-23T20:41:36.544Z,9.02
2022-09-23T20:46:32.819Z,8.82
2022-09-23T20:48:59.758Z,10.30
2022-09-23T20:51:26.657Z,8.95
2022-09-23T20:53:53.403Z,8.48
2022-09-23T20:56:21.346Z,8.95
2022-09-23T20:58:50.315Z,7.55
2022-09-23T21:01:17.739Z,7.88
2022-09-23T21:03:49.397Z,8.32
2022-09-23T21:06:18.613Z,10.68
2022-09-23T21:08:45.931Z,8.18
2022-09-23T21:11:15.605Z,8.45
2022-09-23T21:13:47.108Z,7.85
2022-09-23T21:16:19.140Z,8.95
2022-09-23T21:18:49.608Z,8.23
2022-09-23T21:21:19.269Z,6.90
2022-09-23T21:23:47.598Z,8.88
2022-09-23T21:26:20.232Z,8.18
2022-09-23T21:28:50.020Z,8.10
2022-09-23T21:31:23.253Z,7.28
2022-09-23T21:33:56.508Z,8.77
2022-09-23T21:36:24.518Z,7.43
2022-09-23T21:38:52.181Z,8.65
2022-09-23T21:41:20.824Z,11.75
2022-09-23T21:43:49.457Z,10.10
2022-09-23T21:46:21.488Z,9.98
2022-09-23T21:48:53.209Z,7.63
2022-09-23T21:51:26.209Z,8.45
2022-09-23T21:53:55.417Z,9.25
2022-09-23T21:56:27.659Z,8.77
2022-09-23T21:58:55.624Z,7.20
2022-09-23T22:01:35.176Z,8.60
2022-09-23T22:04:14.759Z,9.88
2022-09-23T22:06:41.900Z,8.07
2022-09-23T22:09:14.546Z,7.55
2022-09-23T22:12:00.632Z,9.30
2022-09-23T22:14:27.593Z,8.77
2022-09-23T22:16:57.321Z,7.15
2022-09-23T22:19:26.920Z,8.57
2022-09-23T22:21:55.734Z,8.23
2022-09-23T22:24:22.596Z,7.82
2022-09-23T22:26:49.341Z,8.00
2022-09-23T22:29:35.087Z,8.35
2022-09-23T22:32:22.225Z,8.70
2022-09-23T22:34:50.986Z,7.28
2022-09-23T22:37:21.204Z,7.57
2022-09-23T22:39:47.919Z,7.70
2022-09-23T22:42:14.671Z,9.40
2022-09-23T22:44:41.492Z,7.53
2022-09-23T22:47:09.170Z,6.95
2022-09-23T22:49:36.068Z,10.82
2022-09-23T22:52:04.022Z,6.93
2022-09-23T22:54:34.004Z,8.98
2022-09-23T22:57:03.188Z,9.07
2022-09-23T22:59:30.370Z,9.38
2022-09-23T23:01:59.864Z,8.60
2022-09-23T23:04:27.507Z,9.63
2022-09-23T23:06:54.253Z,6.55
2022-09-23T23:09:21.071Z,8.68
2022-09-23T23:11:48.003Z,9.73
2022-09-23T23:14:17.517Z,8.00
2022-09-23T23:16:46.052Z,9.55
2022-09-23T23:19:16.796Z,9.95
2022-09-23T23:21:45.021Z,8.00
2022-09-23T23:24:17.859Z,7.10
2022-09-23T23:26:45.267Z,7.38
2022-09-23T23:29:14.138Z,10.15
2022-09-23T23:31:41.569Z,8.77
2022-09-23T23:34:12.548Z,7.78
2022-09-23T23:39:06.735Z,9.30
2022-09-23T23:41:33.820Z,10.93
2022-09-23T23:44:01.250Z,9.60
2022-09-23T23:46:29.662Z,10.20
2022-09-23T23:48:57.543Z,11.98
2022-09-23T23:51:26.374Z,9.43
2022-09-23T23:53:53.943Z,11.20
2022-09-23T23:56:22.918Z,11.15
2022-09-23T23:58:57.423Z,10.63
